Time;durP1;ratioP1;P1;durP2;ratioP2;P2;SDS_P1;SDS_P2;PMS_P1;PMS_P2;Temp;Humidity;BMP_temperature;BMP_pressure;BME280_temperature;BME280_humidity;BME280_pressure;Samples;Min_cycle;Max_cycle;Signal;HPM_P1;HPM_P2
2024/01/17 00:01:13;;;;;;;11.10;5.20;;;;;;;-3.62;93.04;100164.38;4964750;28;20027;-89
2024/01/17 00:03:39;;;;;;;10.13;5.33;;;;;;;-3.63;92.81;100163.53;4966825;28;20030;-89
2024/01/17 00:06:04;;;;;;;11.87;5.10;;;;;;;-3.63;92.92;100148.28;4963569;28;20091;-89
2024/01/17 00:08:30;;;;;;;10.40;5.00;;;;;;;-3.63;93.41;100148.28;4953144;28;20040;-90
2024/01/17 00:10:55;;;;;;;10.23;5.00;;;;;;;-3.63;93.52;100139.75;4956914;28;20026;-89
2024/01/17 00:13:20;;;;;;;10.40;5.13;;;;;;;-3.62;92.78;100138.94;4964447;28;20031;-90
2024/01/17 00:15:45;;;;;;;10.23;5.03;;;;;;;-3.65;93.08;100139.75;4946522;28;20437;-90
2024/01/17 00:18:11;;;;;;;9.20;4.83;;;;;;;-3.66;93.08;100138.88;4964906;28;20543;-89
2024/01/17 00:20:36;;;;;;;9.03;4.83;;;;;;;-3.67;92.99;100128.69;4964582;28;20027;-89
2024/01/17 00:23:02;;;;;;;7.97;5.03;;;;;;;-3.67;92.59;100131.22;4964103;28;20421;-88
2024/01/17 00:25:27;;;;;;;11.10;5.60;;;;;;;-3.67;93.38;100123.59;4966438;28;20027;-90
2024/01/17 00:27:53;;;;;;;8.30;4.77;;;;;;;-3.68;93.41;100119.34;4965672;28;20071;-90
2024/01/17 00:30:18;;;;;;;10.47;4.77;;;;;;;-3.68;93.58;100114.25;4966236;28;20031;-89
2024/01/17 00:32:43;;;;;;;9.13;4.70;;;;;;;-3.68;92.88;100109.16;4960645;28;20473;-89
2024/01/17 00:35:09;;;;;;;9.03;4.63;;;;;;;-3.68;93.17;100104.97;4959658;28;20662;-90
2024/01/17 00:37:34;;;;;;;11.37;5.33;;;;;;;-3.67;93.19;100103.25;4962821;28;20023;-89
2024/01/17 00:40:00;;;;;;;11.30;5.30;;;;;;;-3.66;93.11;100087.19;4963581;28;20483;-90
2024/01/17 00:42:29;;;;;;;10.80;5.30;;;;;;;-3.67;93.30;100080.38;4964895;28;20111;-90
2024/01/17 00:44:54;;;;;;;10.17;5.00;;;;;;;-3.68;92.70;100083.75;4964549;28;20065;-89
2024/01/17 00:47:20;;;;;;;9.10;5.00;;;;;;;-3.69;92.99;100088.00;4966990;28;20038;-89
2024/01/17 00:49:45;;;;;;;8.83;4.80;;;;;;;-3.70;93.24;100075.22;4961994;28;20050;-91
2024/01/17 00:52:11;;;;;;;8.70;5.23;;;;;;;-3.69;93.54;100074.41;4963136;28;20027;-91
2024/01/17 00:54:36;;;;;;;7.77;4.47;;;;;;;-3.71;93.75;100068.44;4965598;28;20035;-89
2024/01/17 00:57:01;;;;;;;8.30;4.30;;;;;;;-3.70;93.38;100062.53;4957407;28;20096;-89
2024/01/17 00:59:26;;;;;;;9.47;4.20;;;;;;;-3.70;93.47;100062.53;4959475;28;20066;-90
2024/01/17 01:01:52;;;;;;;9.80;4.80;;;;;;;-3.71;93.30;100060.81;4941792;28;20030;-89
2024/01/17 01:04:17;;;;;;;7.53;3.90;;;;;;;-3.73;93.13;100044.66;4962744;28;20427;-90
2024/01/17 01:06:42;;;;;;;8.03;4.23;;;;;;;-3.73;93.27;100042.13;4960597;28;20173;-90
2024/01/17 01:09:09;;;;;;;11.60;5.10;;;;;;;-3.77;93.26;100046.28;4963444;28;20624;-90
2024/01/17 01:11:36;;;;;;;8.63;4.50;;;;;;;-3.79;93.71;100039.47;4945935;28;20504;-89
2024/01/17 01:14:02;;;;;;;8.77;4.23;;;;;;;-3.83;93.03;100034.34;4963651;28;20030;-90
2024/01/17 01:16:27;;;;;;;8.23;4.23;;;;;;;-3.84;93.39;100036.81;4962810;28;20105;-90
2024/01/17 01:18:52;;;;;;;9.30;5.17;;;;;;;-3.85;93.27;100025.81;4963240;28;20123;-88
2024/01/17 01:21:19;;;;;;;9.27;5.00;;;;;;;-3.85;93.17;100030.91;4954671;28;20054;-89
2024/01/17 01:23:45;;;;;;;9.47;5.20;;;;;;;-3.88;93.24;100030.84;4967738;28;20078;-88
2024/01/17 01:26:10;;;;;;;12.03;5.70;;;;;;;-3.89;93.85;100031.66;4959042;28;20481;-89
2024/01/17 01:28:36;;;;;;;9.50;4.83;;;;;;;-3.89;93.46;100029.13;4958760;28;20110;-89
2024/01/17 01:31:01;;;;;;;9.93;5.40;;;;;;;-3.89;93.09;100024.03;4958859;28;20507;-89
2024/01/17 01:33:26;;;;;;;8.63;4.87;;;;;;;-3.89;93.35;100026.56;4953026;28;20068;-88
2024/01/17 01:35:52;;;;;;;13.23;6.27;;;;;;;-3.89;93.70;100029.13;4959182;28;20046;-88
2024/01/17 01:38:17;;;;;;;20.43;5.73;;;;;;;-3.91;93.39;100020.59;4964409;28;20026;-88
2024/01/17 01:40:42;;;;;;;8.20;4.70;;;;;;;-3.91;93.61;100015.53;4964189;28;20105;-88
2024/01/17 01:43:21;;;;;;;9.90;4.93;;;;;;;-3.89;93.07;100018.94;4955479;28;20663;-88
2024/01/17 01:46:23;;;;;;;9.07;4.80;;;;;;;-3.87;93.62;100021.53;4943268;28;20484;-87
2024/01/17 01:48:49;;;;;;;9.70;4.90;;;;;;;-3.88;93.14;100015.59;4963857;28;20070;-88
2024/01/17 01:51:15;;;;;;;10.63;5.00;;;;;;;-3.87;93.54;100012.22;4959103;28;20413;-87
2024/01/17 01:53:47;;;;;;;9.83;4.90;;;;;;;-3.87;93.82;100009.69;4964343;28;20109;-88
2024/01/17 01:56:15;;;;;;;8.40;4.43;;;;;;;-3.86;93.62;100008.84;4960168;28;20031;-88
2024/01/17 01:58:43;;;;;;;8.73;4.73;;;;;;;-3.84;93.30;100002.13;4950206;28;20024;-88
2024/01/17 02:01:10;;;;;;;10.10;4.50;;;;;;;-3.82;93.67;100003.00;4979271;28;20046;-88
2024/01/17 02:03:36;;;;;;;11.77;5.23;;;;;;;-3.83;93.56;99997.88;4961216;28;20031;-87
2024/01/17 02:06:02;;;;;;;8.33;4.80;;;;;;;-3.84;93.29;99993.63;4962119;28;20035;-88
2024/01/17 02:08:27;;;;;;;10.20;5.33;;;;;;;-3.86;93.20;99982.59;4968114;28;20030;-87
2024/01/17 02:10:53;;;;;;;9.00;4.90;;;;;;;-3.86;93.17;99977.53;4965343;28;20031;-87
2024/01/17 02:13:19;;;;;;;10.97;5.10;;;;;;;-3.87;93.47;99981.72;4963607;28;20039;-87
2024/01/17 02:15:44;;;;;;;9.37;4.67;;;;;;;-3.87;93.72;99980.88;4959629;28;20027;-87
2024/01/17 02:18:10;;;;;;;9.83;4.87;;;;;;;-3.87;93.37;99971.56;4936587;29;20408;-88
2024/01/17 02:20:37;;;;;;;10.37;4.90;;;;;;;-3.87;93.80;99968.19;4961450;28;20035;-88
2024/01/17 02:23:20;;;;;;;9.97;4.97;;;;;;;-3.86;93.82;99964.81;4962998;28;20042;-87
2024/01/17 02:25:46;;;;;;;10.97;6.00;;;;;;;-3.87;93.23;99963.94;4960240;28;20050;-87
2024/01/17 02:28:11;;;;;;;9.17;5.23;;;;;;;-3.88;93.35;99962.22;4965258;28;20480;-87
2024/01/17 02:30:36;;;;;;;9.63;4.70;;;;;;;-3.87;93.56;99956.31;4961814;28;20027;-87
2024/01/17 02:33:02;;;;;;;9.47;5.33;;;;;;;-3.88;93.17;99944.44;4958493;28;20061;-88
2024/01/17 02:35:27;;;;;;;10.80;4.80;;;;;;;-3.86;93.93;99941.94;4959247;28;20121;-87
2024/01/17 02:37:53;;;;;;;9.90;5.30;;;;;;;-3.86;93.61;99941.94;4961472;28;20030;-87
2024/01/17 02:40:18;;;;;;;11.70;5.50;;;;;;;-3.86;93.90;99927.53;4961755;28;20055;-87
2024/01/17 02:42:43;;;;;;;13.27;5.90;;;;;;;-3.87;93.73;99925.81;4963440;28;20423;-86
2024/01/17 02:45:09;;;;;;;11.50;5.93;;;;;;;-3.86;93.35;99916.53;4957990;28;20044;-88
2024/01/17 02:47:34;;;;;;;15.83;6.87;;;;;;;-3.86;93.44;99912.28;4955302;28;20025;-88
2024/01/17 02:50:00;;;;;;;12.60;6.53;;;;;;;-3.85;93.63;99905.53;4961932;28;20035;-87
2024/01/17 02:52:25;;;;;;;15.33;6.97;;;;;;;-3.84;93.84;99908.09;4960263;28;20030;-88
2024/01/17 02:54:50;;;;;;;16.07;6.93;;;;;;;-3.84;93.25;99908.09;4961121;28;20026;-86
2024/01/17 02:57:18;;;;;;;11.63;5.93;;;;;;;-3.84;93.06;99899.59;4936293;29;20031;-87
2024/01/17 02:59:43;;;;;;;12.27;5.77;;;;;;;-3.83;93.46;99898.78;4950632;28;20416;-87
2024/01/17 03:02:09;;;;;;;11.43;6.20;;;;;;;-3.83;93.60;99896.22;4967086;28;20126;-87
2024/01/17 03:04:35;;;;;;;10.97;5.23;;;;;;;-3.83;93.43;99892.03;4964896;28;20578;-87
2024/01/17 03:07:00;;;;;;;11.10;5.17;;;;;;;-3.82;93.64;99881.03;4960995;28;20035;-87
2024/01/17 03:09:25;;;;;;;10.40;5.50;;;;;;;-3.82;93.28;99875.94;4957591;28;20099;-87
2024/01/17 03:11:51;;;;;;;14.33;6.43;;;;;;;-3.82;93.33;99873.41;4959340;28;20035;-87
2024/01/17 03:14:17;;;;;;;13.13;6.87;;;;;;;-3.83;93.24;99864.06;4962829;28;20023;-88
2024/01/17 03:16:42;;;;;;;11.20;6.23;;;;;;;-3.82;93.06;99867.44;4967304;28;20030;-88
2024/01/17 03:19:07;;;;;;;11.60;6.10;;;;;;;-3.83;92.97;99866.59;4952766;28;20026;-87
2024/01/17 03:21:33;;;;;;;11.63;6.00;;;;;;;-3.85;93.24;99857.25;4955253;28;20026;-87
2024/01/17 03:23:59;;;;;;;11.70;5.53;;;;;;;-3.84;93.01;99853.84;4959150;28;20058;-87
2024/01/17 03:26:25;;;;;;;12.33;5.77;;;;;;;-3.83;92.79;99850.50;4964691;28;20514;-86
2024/01/17 03:28:50;;;;;;;10.90;6.20;;;;;;;-3.84;92.93;99854.72;4965897;28;20058;-87
2024/01/17 03:31:15;;;;;;;13.00;6.37;;;;;;;-3.85;93.19;99847.09;4960515;28;20033;-87
2024/01/17 03:33:40;;;;;;;11.83;6.40;;;;;;;-3.87;92.96;99839.44;4961848;28;20024;-86
2024/01/17 03:36:06;;;;;;;17.30;7.37;;;;;;;-3.86;92.88;99837.75;4971240;28;20026;-87
2024/01/17 03:38:32;;;;;;;16.47;6.83;;;;;;;-3.87;93.07;99834.34;4966958;28;20038;-87
2024/01/17 03:41:00;;;;;;;13.00;7.00;;;;;;;-3.88;93.10;99821.63;4963879;28;20094;-87
2024/01/17 03:43:25;;;;;;;15.17;6.97;;;;;;;-3.89;93.17;99823.28;4964865;28;20046;-86
2024/01/17 03:45:53;;;;;;;13.43;6.37;;;;;;;-3.88;93.25;99811.47;4954711;28;20062;-87
2024/01/17 03:48:19;;;;;;;13.80;6.47;;;;;;;-3.89;93.36;99807.22;4945686;29;20049;-87
2024/01/17 03:50:44;;;;;;;11.97;5.80;;;;;;;-3.89;92.92;99805.50;4955660;28;20477;-87
2024/01/17 03:53:09;;;;;;;10.53;5.20;;;;;;;-3.91;93.33;99797.00;4954995;28;20024;-86
2024/01/17 03:55:35;;;;;;;11.00;5.17;;;;;;;-3.91;93.16;99786.84;4956374;28;20376;-86
2024/01/17 03:58:01;;;;;;;9.03;4.70;;;;;;;-3.88;93.64;99784.34;4955548;28;20027;-87
2024/01/17 04:00:26;;;;;;;8.93;4.97;;;;;;;-3.90;93.06;99773.31;4954280;28;20098;-87
2024/01/17 04:02:51;;;;;;;10.33;4.93;;;;;;;-3.91;93.33;99776.69;4954331;28;20543;-87
2024/01/17 04:05:19;;;;;;;10.70;5.03;;;;;;;-3.91;92.81;99769.06;4954864;28;20464;-86
2024/01/17 04:07:44;;;;;;;8.30;4.87;;;;;;;-3.91;92.89;99761.44;4954924;28;20691;-87
2024/01/17 04:10:10;;;;;;;9.83;5.13;;;;;;;-3.91;93.23;99751.25;4954620;28;20321;-86
2024/01/17 04:12:35;;;;;;;9.20;4.47;;;;;;;-3.90;93.22;99737.72;4947721;29;20485;-87
2024/01/17 04:15:01;;;;;;;10.13;4.57;;;;;;;-3.89;93.54;99734.34;4954709;28;20032;-86
2024/01/17 04:17:26;;;;;;;6.90;3.67;;;;;;;-3.89;93.65;99728.44;4954934;28;20499;-87
2024/01/17 04:19:51;;;;;;;10.00;4.67;;;;;;;-3.89;93.46;99714.03;4954007;29;20046;-87
2024/01/17 04:22:17;;;;;;;9.13;4.13;;;;;;;-3.88;93.48;99715.75;4955241;28;20022;-86
2024/01/17 04:24:42;;;;;;;8.07;4.50;;;;;;;-3.85;92.94;99702.25;4955302;28;20027;-86
2024/01/17 04:27:07;;;;;;;8.97;4.03;;;;;;;-3.83;93.59;99703.09;4945370;29;20030;-86
2024/01/17 04:29:35;;;;;;;9.30;4.20;;;;;;;-3.83;93.25;99693.81;4953569;29;20023;-86
2024/01/17 04:32:00;;;;;;;9.03;4.13;;;;;;;-3.79;93.45;99683.69;4954410;28;20031;-87
2024/01/17 04:34:25;;;;;;;9.83;4.20;;;;;;;-3.79;93.66;99681.16;4957337;28;20042;-87
2024/01/17 04:36:51;;;;;;;10.90;4.13;;;;;;;-3.79;93.91;99665.91;4943477;29;20031;-86
2024/01/17 04:39:17;;;;;;;9.07;3.97;;;;;;;-3.78;93.28;99660.00;4947123;29;20106;-87
2024/01/17 04:41:42;;;;;;;9.00;4.20;;;;;;;-3.76;93.24;99655.78;4954735;28;20024;-86
2024/01/17 04:44:09;;;;;;;7.67;4.17;;;;;;;-3.77;93.15;99649.84;4961269;28;20030;-87
2024/01/17 04:46:36;;;;;;;7.77;4.00;;;;;;;-3.77;93.40;99641.38;4953452;28;20379;-86
2024/01/17 04:49:02;;;;;;;9.00;4.27;;;;;;;-3.76;93.00;99643.06;4970083;28;20162;-86
2024/01/17 04:51:28;;;;;;;8.37;4.23;;;;;;;-3.76;93.27;99643.06;4963916;28;20061;-87
2024/01/17 04:53:54;;;;;;;7.93;4.03;;;;;;;-3.77;93.51;99637.13;4972050;28;20033;-87
2024/01/17 04:56:19;;;;;;;8.83;4.63;;;;;;;-3.76;93.11;99638.00;4972268;28;20018;-87
2024/01/17 04:58:44;;;;;;;9.93;4.33;;;;;;;-3.76;93.66;99649.00;4972157;28;20070;-86
2024/01/17 05:01:10;;;;;;;10.40;4.80;;;;;;;-3.76;93.61;99638.84;4970973;28;20037;-86
2024/01/17 05:03:36;;;;;;;8.63;4.70;;;;;;;-3.76;93.83;99638.84;4971982;28;20018;-86
2024/01/17 05:06:02;;;;;;;8.63;4.60;;;;;;;-3.77;92.96;99631.19;4971625;28;20054;-87
2024/01/17 05:08:28;;;;;;;7.13;4.10;;;;;;;-3.77;93.31;99624.41;4971254;28;20019;-87
2024/01/17 05:10:54;;;;;;;12.67;4.80;;;;;;;-3.80;93.25;99621.84;4971583;28;20022;-86
2024/01/17 05:13:20;;;;;;;9.70;4.43;;;;;;;-3.81;92.73;99615.91;4971941;28;20027;-87
2024/01/17 05:15:45;;;;;;;8.07;4.40;;;;;;;-3.83;93.07;99607.41;4971815;28;20032;-87
2024/01/17 05:18:11;;;;;;;10.50;5.00;;;;;;;-3.83;93.57;99598.91;4970838;28;21792;-87
2024/01/17 05:20:36;;;;;;;8.33;4.53;;;;;;;-3.84;93.93;99595.53;4970706;28;20399;-87
2024/01/17 05:23:02;;;;;;;9.47;5.00;;;;;;;-3.83;93.85;99591.28;4971161;28;20383;-87
2024/01/17 05:25:27;;;;;;;9.30;4.37;;;;;;;-3.84;93.63;99590.44;4970667;28;20075;-87
2024/01/17 05:27:53;;;;;;;8.33;4.57;;;;;;;-3.83;93.79;99587.06;4970820;28;20039;-87
2024/01/17 05:30:26;;;;;;;11.00;4.67;;;;;;;-3.84;93.63;99595.53;4969642;28;20033;-88
2024/01/17 05:32:55;;;;;;;8.73;4.57;;;;;;;-3.84;93.44;99581.97;4970654;28;20520;-88
2024/01/17 05:35:21;;;;;;;8.17;4.10;;;;;;;-3.83;93.38;99582.00;4970113;28;20026;-88
2024/01/17 05:37:47;;;;;;;9.90;4.40;;;;;;;-3.83;93.43;99582.00;4970533;28;20034;-87
2024/01/17 05:40:13;;;;;;;8.67;4.40;;;;;;;-3.83;93.69;99570.97;4969905;28;20093;-88
2024/01/17 05:42:41;;;;;;;8.47;4.23;;;;;;;-3.84;93.20;99570.13;4969952;28;20022;-88
2024/01/17 05:45:07;;;;;;;11.17;5.00;;;;;;;-3.85;93.17;99563.34;4957376;28;20042;-87
2024/01/17 05:47:35;;;;;;;8.03;4.13;;;;;;;-3.85;93.16;99543.00;4927630;29;20445;-87
2024/01/17 05:50:04;;;;;;;9.40;4.90;;;;;;;-3.86;93.30;99543.84;4950842;28;20023;-87
2024/01/17 05:52:30;;;;;;;8.70;4.60;;;;;;;-3.88;93.21;99537.03;4949672;28;20023;-88
2024/01/17 05:54:56;;;;;;;8.07;4.37;;;;;;;-3.90;93.12;99528.53;4951604;28;20046;-87
2024/01/17 05:57:21;;;;;;;8.33;4.37;;;;;;;-3.90;92.84;99529.38;4939346;28;20058;-88
2024/01/17 05:59:46;;;;;;;8.13;4.63;;;;;;;-3.88;92.87;99521.81;4952100;28;20544;-88
2024/01/17 06:02:12;;;;;;;8.87;4.30;;;;;;;-3.88;93.25;99522.63;4951738;28;20027;-87
2024/01/17 06:04:37;;;;;;;7.60;4.23;;;;;;;-3.89;92.67;99530.25;4950184;28;20024;-87
2024/01/17 06:07:03;;;;;;;8.30;4.70;;;;;;;-3.89;93.29;99522.63;4938782;28;20416;-87
2024/01/17 06:09:28;;;;;;;9.53;4.10;;;;;;;-3.91;93.17;99507.34;4953582;28;20027;-87
2024/01/17 06:11:53;;;;;;;8.33;4.50;;;;;;;-3.93;92.90;99506.50;4952287;28;20035;-88
2024/01/17 06:14:19;;;;;;;9.00;4.20;;;;;;;-3.92;93.03;99509.88;4952049;28;20038;-87
2024/01/17 06:16:44;;;;;;;6.93;4.20;;;;;;;-3.92;92.75;99498.03;4954196;28;20110;-87
2024/01/17 06:19:10;;;;;;;8.90;4.30;;;;;;;-3.91;93.17;99504.81;4952476;28;20566;-88
2024/01/17 06:21:35;;;;;;;7.63;4.27;;;;;;;-3.90;92.59;99508.22;4952092;28;20023;-88
2024/01/17 06:24:01;;;;;;;11.27;4.63;;;;;;;-3.91;92.76;99504.81;4951574;28;20070;-88
2024/01/17 06:26:26;;;;;;;7.67;4.37;;;;;;;-3.91;92.59;99499.72;4953271;28;20027;-88
2024/01/17 06:28:52;;;;;;;9.50;4.70;;;;;;;-3.90;92.66;99495.53;4933603;29;20118;-87
2024/01/17 06:31:25;;;;;;;9.97;4.80;;;;;;;-3.92;92.69;99487.88;4945728;28;20086;-88
2024/01/17 06:33:54;;;;;;;8.40;4.73;;;;;;;-3.94;92.89;99481.94;4945880;28;20042;-89
2024/01/17 06:36:19;;;;;;;8.10;4.43;;;;;;;-3.92;92.39;99487.03;4956008;28;20078;-88
2024/01/17 06:38:45;;;;;;;9.43;4.33;;;;;;;-3.94;93.00;99479.41;4945242;29;20027;-88
2024/01/17 06:41:10;;;;;;;8.27;4.23;;;;;;;-3.92;93.07;99480.25;4951390;28;20046;-88
2024/01/17 06:43:36;;;;;;;8.27;4.60;;;;;;;-3.89;92.55;99474.34;4954177;28;20497;-87
2024/01/17 06:46:02;;;;;;;10.60;4.37;;;;;;;-3.86;92.86;99466.78;4930649;29;20046;-88
2024/01/17 06:48:28;;;;;;;9.13;4.47;;;;;;;-3.83;93.09;99464.25;4938532;29;20110;-88
2024/01/17 06:50:53;;;;;;;8.33;4.40;;;;;;;-3.81;92.96;99465.13;4942049;29;20803;-87
2024/01/17 06:53:21;;;;;;;7.20;4.20;;;;;;;-3.79;93.45;99465.16;4939811;29;20035;-88
2024/01/17 06:55:46;;;;;;;8.53;4.53;;;;;;;-3.78;93.16;99461.78;4935014;29;20027;-87
2024/01/17 06:58:11;;;;;;;8.97;4.43;;;;;;;-3.76;92.90;99455.03;4921074;29;20045;-88
2024/01/17 07:00:37;;;;;;;9.83;4.50;;;;;;;-3.75;93.01;99456.69;4939138;28;20037;-88
2024/01/17 07:03:02;;;;;;;9.17;4.33;;;;;;;-3.74;92.59;99463.47;4941474;29;20054;-88
2024/01/17 07:05:28;;;;;;;8.50;4.07;;;;;;;-3.72;93.00;99464.34;4939820;29;20438;-88
2024/01/17 07:07:53;;;;;;;8.77;4.47;;;;;;;-3.70;93.08;99455.06;4933866;29;20058;-89
2024/01/17 07:10:19;;;;;;;11.10;4.77;;;;;;;-3.69;92.77;99449.16;4935853;29;20106;-88
2024/01/17 07:12:44;;;;;;;9.53;5.10;;;;;;;-3.67;93.42;99450.00;4940725;29;20032;-88
2024/01/17 07:15:09;;;;;;;9.57;4.87;;;;;;;-3.66;92.89;99434.75;4934330;29;20031;-88
2024/01/17 07:17:35;;;;;;;9.80;5.13;;;;;;;-3.66;93.19;99434.75;4944483;29;20028;-88
2024/01/17 07:20:00;;;;;;;9.97;4.70;;;;;;;-3.67;93.03;99419.50;4937486;29;20547;-87
2024/01/17 07:22:25;;;;;;;11.33;5.77;;;;;;;-3.68;93.17;99411.06;4927452;29;20023;-88
2024/01/17 07:24:51;;;;;;;10.37;5.50;;;;;;;-3.66;92.98;99403.44;4950471;29;20043;-88
2024/01/17 07:27:16;;;;;;;10.67;5.80;;;;;;;-3.66;92.99;99393.25;4950687;29;20452;-87
2024/01/17 07:29:41;;;;;;;9.80;5.33;;;;;;;-3.66;93.15;99390.72;4951109;29;20381;-88
2024/01/17 07:32:07;;;;;;;11.33;6.03;;;;;;;-3.65;92.90;99392.41;4932463;29;20500;-88
2024/01/17 07:34:32;;;;;;;10.47;5.67;;;;;;;-3.65;93.40;99387.34;4933632;29;20404;-87
2024/01/17 07:36:58;;;;;;;11.83;5.30;;;;;;;-3.65;93.35;99382.25;4950346;29;20035;-88
2024/01/17 07:39:23;;;;;;;10.47;5.27;;;;;;;-3.65;93.48;99367.00;4933288;29;20766;-87
2024/01/17 07:41:48;;;;;;;11.73;5.60;;;;;;;-3.66;93.03;99371.22;4932607;29;20110;-87
2024/01/17 07:44:14;;;;;;;11.60;5.73;;;;;;;-3.66;92.75;99376.31;4949674;28;20399;-88
2024/01/17 07:46:40;;;;;;;10.60;5.70;;;;;;;-3.64;93.62;99370.38;4950511;29;20023;-88
2024/01/17 07:49:05;;;;;;;11.77;6.60;;;;;;;-3.63;93.62;99361.94;4942489;28;20026;-88
2024/01/17 07:51:31;;;;;;;10.80;6.50;;;;;;;-3.62;93.21;99345.84;4948617;28;20015;-89
2024/01/17 07:53:56;;;;;;;11.60;6.10;;;;;;;-3.62;93.11;99341.63;4949613;29;20033;-90
2024/01/17 07:56:22;;;;;;;15.53;6.83;;;;;;;-3.61;92.88;99333.16;4931608;29;20094;-93
2024/01/17 07:58:49;;;;;;;10.47;6.00;;;;;;;-3.57;93.04;99336.56;4951410;29;20469;-92
2024/01/17 08:01:15;;;;;;;11.93;6.10;;;;;;;-3.58;92.72;99330.59;4933980;29;20027;-90
2024/01/17 08:03:40;;;;;;;11.63;6.60;;;;;;;-3.57;92.42;99329.78;4950199;29;20023;-87
2024/01/17 08:06:06;;;;;;;10.30;5.57;;;;;;;-3.56;92.71;99326.41;4934394;29;20486;-91
2024/01/17 08:08:32;;;;;;;11.73;6.00;;;;;;;-3.56;92.72;99328.94;4953511;29;20575;-89
2024/01/17 08:10:57;;;;;;;12.57;6.03;;;;;;;-3.54;93.61;99318.78;4952868;28;20605;-89
2024/01/17 08:13:22;;;;;;;12.63;6.97;;;;;;;-3.52;92.38;99317.97;4953434;29;20024;-88
2024/01/17 08:15:48;;;;;;;12.70;6.80;;;;;;;-3.53;92.71;99315.41;4953564;29;20098;-87
2024/01/17 08:18:13;;;;;;;13.57;7.43;;;;;;;-3.51;92.91;99319.66;4951728;29;20038;-86
2024/01/17 08:20:39;;;;;;;10.70;5.70;;;;;;;-3.48;92.17;99317.97;4951763;28;20032;-90
2024/01/17 08:23:05;;;;;;;12.90;6.93;;;;;;;-3.48;92.25;99308.66;4954623;29;20079;-90
2024/01/17 08:25:33;;;;;;;11.83;6.40;;;;;;;-3.46;92.17;99306.13;4954769;29;20522;-88
2024/01/17 08:27:59;;;;;;;11.10;6.70;;;;;;;-3.44;92.67;99309.53;4957432;28;20031;-86
2024/01/17 08:30:25;;;;;;;11.77;6.83;;;;;;;-3.42;92.68;99303.63;4923773;28;20027;-87
2024/01/17 08:32:53;;;;;;;10.40;6.37;;;;;;;-3.38;92.93;99296.84;4956389;28;20034;-86
2024/01/17 08:35:21;;;;;;;14.20;6.83;;;;;;;-3.37;92.42;99299.41;4938699;29;20071;-87
2024/01/17 08:37:47;;;;;;;14.57;6.63;;;;;;;-3.33;92.71;99287.56;4956292;28;20030;-87
2024/01/17 08:40:12;;;;;;;10.63;5.90;;;;;;;-3.28;92.65;99285.91;4957195;28;20126;-87
2024/01/17 08:42:38;;;;;;;11.20;5.70;;;;;;;-3.25;92.30;99285.94;4957824;28;20373;-88
2024/01/17 08:45:05;;;;;;;10.63;5.77;;;;;;;-3.23;92.52;99278.28;4968313;28;20395;-87
2024/01/17 08:47:31;;;;;;;10.63;5.37;;;;;;;-3.20;92.62;99274.06;4975730;28;20078;-85
2024/01/17 08:49:56;;;;;;;11.67;5.77;;;;;;;-3.14;93.41;99272.41;4975833;28;20030;-85
2024/01/17 08:52:22;;;;;;;9.60;5.20;;;;;;;-3.13;92.73;99267.31;4975727;28;20047;-86
2024/01/17 08:54:48;;;;;;;10.63;5.07;;;;;;;-3.11;92.34;99257.16;4975746;28;20025;-85
2024/01/17 08:57:13;;;;;;;11.27;5.43;;;;;;;-3.08;92.91;99257.16;4956490;28;20023;-86
2024/01/17 08:59:39;;;;;;;10.17;5.60;;;;;;;-3.07;92.47;99253.75;4974041;28;20054;-86
2024/01/17 09:02:04;;;;;;;11.10;5.30;;;;;;;-3.05;92.32;99259.69;4972546;28;20029;-88
2024/01/17 09:04:30;;;;;;;11.13;5.03;;;;;;;-3.02;92.68;99251.25;4976312;28;20029;-87
2024/01/17 09:06:56;;;;;;;10.20;4.40;;;;;;;-3.03;93.14;99245.28;4971542;28;20019;-86
2024/01/17 09:09:22;;;;;;;11.37;5.30;;;;;;;-2.99;92.38;99236.00;4974402;28;20027;-85
2024/01/17 09:11:47;;;;;;;8.97;4.17;;;;;;;-2.99;92.85;99236.84;4957655;28;20129;-86
2024/01/17 09:14:13;;;;;;;10.43;4.20;;;;;;;-2.96;92.47;99230.91;4976479;28;20030;-85
2024/01/17 09:16:38;;;;;;;8.53;4.50;;;;;;;-2.93;92.65;99233.47;4968187;28;20023;-85
2024/01/17 09:19:03;;;;;;;10.93;4.90;;;;;;;-2.90;92.00;99220.75;4963950;28;20093;-85
2024/01/17 09:21:30;;;;;;;9.27;4.53;;;;;;;-2.87;92.52;99212.25;4972246;28;20067;-85
2024/01/17 09:23:55;;;;;;;10.20;4.43;;;;;;;-2.82;92.60;99215.69;4970264;28;20025;-85
2024/01/17 09:26:21;;;;;;;11.00;5.10;;;;;;;-2.80;92.49;99212.28;4971235;28;20492;-85
2024/01/17 09:28:46;;;;;;;8.23;4.20;;;;;;;-2.77;92.17;99207.19;4973584;28;20049;-86
2024/01/17 09:31:12;;;;;;;8.53;4.50;;;;;;;-2.73;92.42;99208.06;4970162;28;20657;-86
2024/01/17 09:33:37;;;;;;;10.30;4.90;;;;;;;-2.70;91.92;99207.22;4969428;28;20487;-87
2024/01/17 09:36:02;;;;;;;10.40;4.57;;;;;;;-2.68;92.03;99196.19;4970328;28;20488;-86
2024/01/17 09:38:28;;;;;;;11.10;4.80;;;;;;;-2.64;91.75;99192.81;4953593;28;20133;-87
2024/01/17 09:40:53;;;;;;;9.60;4.80;;;;;;;-2.60;91.80;99191.09;4972230;28;20029;-86
2024/01/17 09:43:19;;;;;;;9.17;4.30;;;;;;;-2.56;91.77;99189.44;4973024;28;20041;-85
2024/01/17 09:45:45;;;;;;;9.40;4.80;;;;;;;-2.52;92.00;99193.66;4972029;28;20176;-90
2024/01/17 09:48:14;;;;;;;8.43;4.63;;;;;;;-2.47;92.05;99199.63;4953788;28;20110;-85
2024/01/17 09:50:40;;;;;;;10.37;5.00;;;;;;;-2.44;91.72;99194.53;4970879;28;20396;-85
2024/01/17 09:53:12;;;;;;;11.53;4.93;;;;;;;-2.38;91.38;99199.59;4952893;28;20031;-85
2024/01/17 09:55:38;;;;;;;10.20;5.00;;;;;;;-2.33;91.74;99195.38;4953049;28;20705;-88
2024/01/17 09:58:05;;;;;;;9.33;4.67;;;;;;;-2.31;91.11;99196.22;4955035;28;20019;-89
2024/01/17 10:00:32;;;;;;;9.20;4.90;;;;;;;-2.31;91.25;99190.28;4970917;28;20027;-86
2024/01/17 10:02:59;;;;;;;9.53;5.17;;;;;;;-2.27;90.71;99191.13;4970457;28;20022;-88
2024/01/17 10:05:30;;;;;;;9.17;4.97;;;;;;;-2.26;90.72;99190.28;4985632;28;20031;-85
2024/01/17 10:07:55;;;;;;;8.98;4.55;;;;;;;-2.25;91.27;99184.34;4969712;28;20109;-86
2024/01/17 10:10:21;;;;;;;10.47;4.97;;;;;;;-2.24;91.23;99178.41;4970364;28;20493;-86
2024/01/17 10:12:47;;;;;;;9.30;4.73;;;;;;;-2.23;90.85;99182.66;4970079;28;20551;-87
2024/01/17 10:15:13;;;;;;;8.40;4.83;;;;;;;-2.19;90.22;99171.59;4970093;28;20031;-87
2024/01/17 10:17:39;;;;;;;9.33;4.97;;;;;;;-2.19;90.36;99169.03;4969646;28;20090;-88
2024/01/17 10:20:06;;;;;;;8.37;4.40;;;;;;;-2.17;90.22;99159.69;4970428;28;20105;-87
2024/01/17 10:22:32;;;;;;;10.60;4.57;;;;;;;-2.13;90.96;99166.50;4970273;28;20019;-87
2024/01/17 10:25:00;;;;;;;11.13;4.90;;;;;;;-2.11;90.76;99159.69;4969541;28;20109;-88
2024/01/17 10:27:27;;;;;;;10.33;4.57;;;;;;;-2.07;90.39;99150.34;4969590;28;20109;-86
2024/01/17 10:29:52;;;;;;;9.10;4.67;;;;;;;-2.04;90.68;99150.34;4970166;28;20091;-86
2024/01/17 10:32:18;;;;;;;9.27;5.13;;;;;;;-2.02;91.09;99138.44;4970081;28;20469;-86
2024/01/17 10:34:44;;;;;;;10.17;5.10;;;;;;;-2.00;90.34;99140.13;4967925;28;20484;-86
2024/01/17 10:37:11;;;;;;;8.70;4.90;;;;;;;-1.97;90.85;99144.41;4970362;28;20015;-88
2024/01/17 10:39:37;;;;;;;12.07;5.33;;;;;;;-1.94;90.43;99138.44;4953703;28;20050;-87
2024/01/17 10:42:05;;;;;;;11.90;5.37;;;;;;;-1.91;90.70;99135.88;4970049;28;20045;-88
2024/01/17 10:44:31;;;;;;;9.73;4.93;;;;;;;-1.91;90.58;99133.34;4970462;28;20042;-89
2024/01/17 10:46:56;;;;;;;13.00;5.90;;;;;;;-1.89;90.57;99131.63;4971095;28;20035;-87
2024/01/17 10:49:23;;;;;;;10.77;5.70;;;;;;;-1.86;90.36;99131.59;4971664;28;20114;-86
2024/01/17 10:51:53;;;;;;;9.40;5.47;;;;;;;-1.85;90.45;99125.66;4971237;28;20468;-90
2024/01/17 10:54:24;;;;;;;11.03;5.90;;;;;;;-1.83;89.89;99116.31;4984289;28;20031;-88
2024/01/17 10:56:53;;;;;;;11.60;5.77;;;;;;;-1.79;90.46;99105.25;4970355;28;20026;-87
2024/01/17 10:59:20;;;;;;;11.07;5.77;;;;;;;-1.77;90.37;99100.13;4971000;28;20277;-87
2024/01/17 11:01:49;;;;;;;10.90;5.73;;;;;;;-1.74;90.45;99101.00;4968442;28;20027;-87
2024/01/17 11:04:18;;;;;;;11.27;5.87;;;;;;;-1.71;90.54;99095.03;4970307;28;20023;-87
2024/01/17 11:06:44;;;;;;;11.13;5.73;;;;;;;-1.72;90.22;99084.00;4970900;28;20079;-89
2024/01/17 11:09:11;;;;;;;11.13;5.60;;;;;;;-1.71;90.58;99080.56;4971278;28;20107;-90
2024/01/17 11:11:39;;;;;;;11.53;5.87;;;;;;;-1.69;90.55;99078.84;4969747;28;20030;-87
2024/01/17 11:14:07;;;;;;;9.57;5.30;;;;;;;-1.65;90.54;99082.25;4951587;28;20026;-88
2024/01/17 11:16:34;;;;;;;9.57;5.53;;;;;;;-1.62;90.81;99077.13;4969634;28;20090;-86
2024/01/17 11:19:00;;;;;;;11.07;5.83;;;;;;;-1.60;90.18;99077.13;4969912;28;20027;-86
2024/01/17 11:21:26;;;;;;;10.70;5.87;;;;;;;-1.59;90.12;99074.56;4968692;28;20038;-85